createdAt,value
2023-01-10T00:00:16.142Z,99303.00
2023-01-10T00:05:41.141Z,99306.20
2023-01-10T00:10:45.183Z,99313.20
2023-01-10T00:15:49.511Z,99320.20
2023-01-10T00:20:53.247Z,99323.40
2023-01-10T00:25:57.073Z,99326.80
2023-01-10T00:31:02.376Z,99335.20
2023-01-10T00:36:09.101Z,99348.20
2023-01-10T00:41:32.713Z,99359.80
2023-01-10T00:46:36.458Z,99372.40
2023-01-10T00:51:40.070Z,99377.60
2023-01-10T00:56:43.685Z,99381.40
2023-01-10T01:01:47.612Z,99378.80
2023-01-10T01:06:51.621Z,99383.20
2023-01-10T01:11:56.616Z,99396.00
2023-01-10T01:17:00.239Z,99407.20
2023-01-10T01:22:03.960Z,99416.20
2023-01-10T01:27:07.477Z,99417.80
2023-01-10T01:32:11.155Z,99420.40
2023-01-10T01:37:15.262Z,99428.20
2023-01-10T01:42:30.947Z,99435.60
2023-01-10T01:47:41.916Z,99441.20
2023-01-10T01:52:49.004Z,99453.20
2023-01-10T01:57:58.136Z,99462.00
2023-01-10T02:03:03.730Z,99461.00
2023-01-10T02:08:08.635Z,99468.80
2023-01-10T02:13:16.697Z,99472.20
2023-01-10T02:18:22.685Z,99481.00
2023-01-10T02:24:01.291Z,99489.00
2023-01-10T02:29:32.153Z,99503.40
2023-01-10T02:35:24.723Z,99511.20
2023-01-10T02:40:50.691Z,99527.20
2023-01-10T02:46:14.082Z,99531.60
2023-01-10T02:51:24.341Z,99539.00
2023-01-10T02:56:49.838Z,99539.60
2023-01-10T03:02:03.835Z,99532.40
2023-01-10T03:07:44.146Z,99535.40
2023-01-10T03:13:16.070Z,99536.00
2023-01-10T03:18:39.533Z,99543.80
2023-01-10T03:23:45.254Z,99550.60
2023-01-10T03:29:01.155Z,99563.00
2023-01-10T03:34:05.302Z,99568.00
2023-01-10T03:39:48.111Z,99567.20
2023-01-10T03:45:09.624Z,99585.20
2023-01-10T03:50:24.883Z,99592.40
2023-01-10T03:55:30.405Z,99597.40
2023-01-10T04:00:34.360Z,99600.20
2023-01-10T04:05:38.306Z,99610.20
2023-01-10T04:10:42.230Z,99624.80
2023-01-10T04:15:46.016Z,99630.40
2023-01-10T04:20:52.082Z,99643.80
2023-01-10T04:25:56.052Z,99651.60
2023-01-10T04:30:59.892Z,99653.80
2023-01-10T04:36:03.636Z,99665.80
2023-01-10T04:41:07.381Z,99676.40
2023-01-10T04:46:11.207Z,99681.20
2023-01-10T04:51:15.089Z,99689.40
2023-01-10T04:56:21.885Z,99692.60
2023-01-10T05:01:27.169Z,99703.80
2023-01-10T05:06:31.033Z,99710.80
2023-01-10T05:11:34.729Z,99721.40
2023-01-10T05:16:38.537Z,99728.40
2023-01-10T05:21:42.339Z,99737.60
2023-01-10T05:26:46.952Z,99744.20
2023-01-10T05:31:52.452Z,99750.40
2023-01-10T05:36:56.094Z,99760.00
2023-01-10T05:42:00.686Z,99772.20
2023-01-10T05:47:04.581Z,99788.80
2023-01-10T05:52:08.710Z,99798.80
2023-01-10T05:57:12.686Z,99810.20
2023-01-10T06:02:16.368Z,99827.80
2023-01-10T06:07:20.007Z,99838.20
2023-01-10T06:12:23.674Z,99846.60
2023-01-10T06:17:27.962Z,99858.60
2023-01-10T06:22:31.983Z,99885.20
2023-01-10T06:27:35.716Z,99890.60
2023-01-10T06:32:39.589Z,99893.00
2023-01-10T06:37:43.576Z,99901.00
2023-01-10T06:42:47.188Z,99910.20
2023-01-10T06:47:50.894Z,99925.40
2023-01-10T06:53:00.581Z,99932.40
2023-01-10T06:58:05.398Z,99942.40
2023-01-10T07:03:10.330Z,99959.20
2023-01-10T07:08:13.801Z,99961.80
2023-01-10T07:13:17.358Z,99970.20
2023-01-10T07:18:21.247Z,99974.20
2023-01-10T07:23:24.847Z,99983.00
2023-01-10T07:28:28.617Z,99985.80
2023-01-10T07:33:32.781Z,99994.60
2023-01-10T07:38:38.371Z,99998.20
2023-01-10T07:43:42.058Z,100005.60
2023-01-10T07:48:47.258Z,100018.00
2023-01-10T07:53:51.123Z,100016.60
2023-01-10T07:58:54.854Z,100027.00
2023-01-10T08:03:59.275Z,100035.00
2023-01-10T08:09:05.649Z,100041.00
2023-01-10T08:14:09.554Z,100039.80
2023-01-10T08:19:17.267Z,100034.60
2023-01-10T08:24:20.865Z,100043.80
2023-01-10T08:29:24.715Z,100049.80
2023-01-10T08:34:28.405Z,100053.60
2023-01-10T08:39:32.105Z,100060.40
2023-01-10T08:44:36.074Z,100062.60
2023-01-10T08:49:39.747Z,100081.20
2023-01-10T08:54:44.224Z,100092.20
2023-01-10T08:59:48.088Z,100103.20
2023-01-10T09:04:52.028Z,100106.00
2023-01-10T09:09:55.677Z,100118.40
2023-01-10T09:14:59.590Z,100122.20
2023-01-10T09:20:10.539Z,100123.60
2023-01-10T09:25:14.136Z,100131.20
2023-01-10T09:30:18.255Z,100138.60
2023-01-10T09:35:24.333Z,100140.60
2023-01-10T09:41:22.076Z,100146.00
2023-01-10T09:47:08.385Z,100147.80
2023-01-10T09:52:33.980Z,100161.00
2023-01-10T09:57:38.034Z,100153.40
2023-01-10T10:02:48.424Z,100156.20
2023-01-10T10:08:02.657Z,100157.40
2023-01-10T10:13:26.460Z,100156.00
2023-01-10T10:19:02.250Z,100161.60
2023-01-10T10:24:33.270Z,100165.20
2023-01-10T10:29:43.250Z,100167.20
2023-01-10T10:35:09.942Z,100165.80
2023-01-10T10:40:33.534Z,100166.60
2023-01-10T10:45:44.883Z,100172.20
2023-01-10T10:51:26.105Z,100172.00
2023-01-10T10:56:30.915Z,100174.40
2023-01-10T11:01:34.933Z,100175.80
2023-01-10T11:06:46.328Z,100186.20
2023-01-10T11:11:52.357Z,100186.00
2023-01-10T11:17:28.340Z,100185.00
2023-01-10T11:22:47.633Z,100190.20
2023-01-10T11:28:01.330Z,100192.80
2023-01-10T11:33:20.414Z,100197.60
2023-01-10T11:38:25.143Z,100201.60
2023-01-10T11:43:40.561Z,100201.60
2023-01-10T11:49:06.195Z,100210.40
2023-01-10T11:54:29.456Z,100225.40
2023-01-10T11:59:33.834Z,100229.00
2023-01-10T12:04:47.524Z,100243.20
2023-01-10T12:10:04.260Z,100249.60
2023-01-10T12:15:30.151Z,100252.00
2023-01-10T12:20:48.909Z,100260.60
2023-01-10T12:26:10.674Z,100269.80
2023-01-10T12:31:16.769Z,100272.20
2023-01-10T12:37:31.042Z,100279.80
2023-01-10T12:43:32.760Z,100283.00
2023-01-10T12:48:54.165Z,100284.20
2023-01-10T12:54:09.158Z,100291.00
2023-01-10T12:59:37.157Z,100293.80
2023-01-10T13:04:47.577Z,100322.20
2023-01-10T13:09:52.155Z,100326.00
2023-01-10T13:15:21.716Z,100322.40
2023-01-10T13:20:39.877Z,100336.20
2023-01-10T13:25:56.497Z,100340.00
2023-01-10T13:31:32.865Z,100347.00
2023-01-10T13:36:45.018Z,100356.60
2023-01-10T13:42:26.421Z,100354.80
2023-01-10T13:47:46.811Z,100363.20
2023-01-10T13:52:52.947Z,100366.00
2023-01-10T13:58:01.866Z,100368.60
2023-01-10T14:03:06.848Z,100372.40
2023-01-10T14:08:18.496Z,100371.20
2023-01-10T14:13:23.906Z,100382.20
2023-01-10T14:18:42.075Z,100390.00
2023-01-10T14:23:53.527Z,100398.80
2023-01-10T14:29:01.578Z,100391.80
2023-01-10T14:34:18.472Z,100392.80
2023-01-10T14:39:24.700Z,100402.00
2023-01-10T14:44:37.691Z,100404.60
2023-01-10T14:49:54.317Z,100416.60
2023-01-10T14:55:22.854Z,100423.40
2023-01-10T15:00:37.146Z,100423.40
2023-01-10T15:05:50.451Z,100434.80
2023-01-10T15:11:08.941Z,100446.20
2023-01-10T15:16:23.421Z,100452.00
2023-01-10T15:21:27.864Z,100463.20
2023-01-10T15:26:33.824Z,100465.20
2023-01-10T15:31:40.349Z,100462.60
2023-01-10T15:36:51.709Z,100468.60
2023-01-10T15:42:10.383Z,100477.20
2023-01-10T15:47:49.990Z,100487.80
2023-01-10T15:53:05.435Z,100492.00
2023-01-10T15:58:36.815Z,100493.00
2023-01-10T16:03:57.162Z,100491.60
2023-01-10T16:09:06.428Z,100488.40
2023-01-10T16:14:10.123Z,100486.80
2023-01-10T16:19:14.746Z,100486.20
2023-01-10T16:24:25.858Z,100492.60
2023-01-10T16:29:30.168Z,100493.40
2023-01-10T16:34:34.911Z,100495.60
2023-01-10T16:39:40.612Z,100498.40
2023-01-10T16:44:45.896Z,100506.40
2023-01-10T16:49:49.649Z,100520.00
2023-01-10T16:54:53.933Z,100528.00
2023-01-10T16:59:57.665Z,100522.20
2023-01-10T17:05:01.414Z,100529.20
2023-01-10T17:10:06.461Z,100524.00
2023-01-10T17:15:15.772Z,100525.80
2023-01-10T17:20:20.615Z,100523.60
2023-01-10T17:25:25.314Z,100531.60
2023-01-10T17:30:28.940Z,100533.00
2023-01-10T17:35:34.186Z,100544.40
2023-01-10T17:40:45.982Z,100563.20
2023-01-10T17:45:52.098Z,100562.20
2023-01-10T17:51:00.185Z,100572.80
2023-01-10T17:56:32.240Z,100580.00
2023-01-10T18:01:36.500Z,100583.40
2023-01-10T18:06:40.512Z,100582.20
2023-01-10T18:11:45.575Z,100578.60
2023-01-10T18:16:50.040Z,100575.20
2023-01-10T18:21:53.883Z,100569.00
2023-01-10T18:26:58.580Z,100581.00
2023-01-10T18:32:02.728Z,100578.20
2023-01-10T18:37:06.703Z,100589.80
2023-01-10T18:42:12.222Z,100599.40
2023-01-10T18:47:16.141Z,100595.00
2023-01-10T18:52:21.695Z,100595.40
2023-01-10T18:57:26.043Z,100593.00
2023-01-10T19:02:30.182Z,100600.60
2023-01-10T19:07:34.308Z,100596.60
2023-01-10T19:12:41.052Z,100604.80
2023-01-10T19:17:46.592Z,100606.20
2023-01-10T19:22:50.288Z,100616.60
2023-01-10T19:27:54.539Z,100623.20
2023-01-10T19:33:17.549Z,100615.00
2023-01-10T19:38:21.522Z,100611.60
2023-01-10T19:43:26.893Z,100607.40
2023-01-10T19:48:30.918Z,100611.20
2023-01-10T19:53:39.486Z,100615.80
2023-01-10T19:58:43.074Z,100614.80
2023-01-10T20:03:49.290Z,100625.40
2023-01-10T20:08:55.293Z,100629.60
2023-01-10T20:14:02.277Z,100632.00
2023-01-10T20:19:14.381Z,100637.80
2023-01-10T20:24:21.842Z,100644.00
2023-01-10T20:29:31.082Z,100634.20
2023-01-10T20:34:35.384Z,100626.20
2023-01-10T20:39:40.238Z,100628.40
2023-01-10T20:44:44.034Z,100628.80
2023-01-10T20:49:48.458Z,100633.40
2023-01-10T20:54:54.990Z,100626.00
2023-01-10T21:00:00.007Z,100626.40
2023-01-10T21:05:04.369Z,100625.60
2023-01-10T21:10:09.472Z,100629.00
2023-01-10T21:15:13.625Z,100630.60
2023-01-10T21:20:17.726Z,100627.80
2023-01-10T21:25:21.635Z,100634.00
2023-01-10T21:30:25.581Z,100631.20
2023-01-10T21:35:29.870Z,100626.20
2023-01-10T21:40:35.475Z,100621.60
2023-01-10T21:45:42.626Z,100622.20
2023-01-10T21:50:52.131Z,100631.80
2023-01-10T21:56:00.405Z,100631.00
2023-01-10T22:01:04.302Z,100629.00
2023-01-10T22:06:08.688Z,100622.80
2023-01-10T22:11:14.390Z,100633.20
2023-01-10T22:16:20.348Z,100627.20
2023-01-10T22:21:24.180Z,100635.60
2023-01-10T22:26:28.877Z,100635.80
2023-01-10T22:31:32.965Z,100627.20
2023-01-10T22:36:37.721Z,100633.40
2023-01-10T22:41:41.636Z,100634.20
2023-01-10T22:46:46.554Z,100634.00
2023-01-10T22:51:51.448Z,100647.00
2023-01-10T22:56:55.236Z,100646.40
2023-01-10T23:01:58.983Z,100641.80
2023-01-10T23:07:03.042Z,100650.80
2023-01-10T23:12:08.734Z,100654.80
2023-01-10T23:17:12.715Z,100660.20
2023-01-10T23:22:16.872Z,100658.00
2023-01-10T23:27:20.937Z,100651.20
2023-01-10T23:32:24.768Z,100654.80
2023-01-10T23:37:28.714Z,100658.80
2023-01-10T23:42:33.178Z,100660.40
2023-01-10T23:47:37.675Z,100654.80
2023-01-10T23:52:41.290Z,100653.40
2023-01-10T23:57:45.732Z,100656.80
